Rogers, AR

7:44 PM CST en Febrero 01, 2015 (GMT -0600)
Prairie Creek | Change Station
CLOSE
Current Station
Estación meteorológica personal
Location: Rogers, AR
Altura: 1306 ft
Estaciones meteorológicas cercanas

Alt 1306 ft 36.34 °N, 94.04 °W | Updated 20 seconds ago

Nublado
Nublado
21.7 ° F
Sensación térmica 8 ° F
N
15.9
Viento Variable Viento desde NO
Gusts 22.1 mph

Hoy
Alta -- | Baja -- ° F
--% Posibilidad de precipitaciones
Ayer
Alta -- | Baja -- ° F
Precip. -- pul
7:17 AM 5:42 PM
Gibosa creciente, 97% visible
Presión 30.10 pul
Visibilidad 9.0 Millas
Nubes Nublado 1800 ft
Vientos helados 8 ° F
Punto de rocío 13 ° F
Humedad 68%
Precipitaciones 0.20 pul
Espesor de la nieve No disponible.
UV 0 de una escala de 12
Polen 3.60 de una escala de 12
Calidad del aire No disponible.
Flu Activity No disponible.
METAR KROG 020057Z 31021G26KT 9SM OVC018 M05/M08 A3007 RMK AO2 PK WND 31026/0056 SNB14E55 SLP191 P0000 T10501078

More Conditions Fewer Conditions

Presión 30.10 pul
Visibilidad 9.0 Millas
Nubes Nublado 1800 ft
Vientos helados 8 ° F
Punto de rocío 13 ° F
Humedad 68%
Precipitaciones 0.20 pul
Espesor de la nieve No disponible.
UV 0 de una escala de 12
Polen 3.60 de una escala de 12
Calidad del aire No disponible.
Flu Activity No disponible.
METAR KROG 020057Z 31021G26KT 9SM OVC018 M05/M08 A3007 RMK AO2 PK WND 31026/0056 SNB14E55 SLP191 P0000 T10501078

More Conditions Fewer Conditions

10-Day Weather Forecast

Almanac

Astronomía

Feb. 01, 2015 Salida Puesta
Hora real
Crepúsculo civil
Crepúsculo náutico
Crepúsculo astronómico
Luna
Horas de luz
Horas de luz
Tomorrow will be .
, % of the Moon is Illuminated

Extremos de hoy

Máximos del estado Bajos del estado

Community

WunderPhotos

Upload Photos

1,792,652 ¡fotos cargadas!

WunderBlogs® & News

Nearby

Calidad del aire

  Calidad del aire Índice AQ Contaminante
Not available.

Grosos de nieve

Estación Profundido Altura

Actividad de terremotos

Ciudad Distance Mag. Tiempo y dato
Magnitud mínima muestra es 2,5.

Temperaturas de aguas costeras

Lugar Temperatura

Estaciones meteorológicas cercanas